sensor_id;sensor_type;location;lat;lon;timestamp;P1;durP1;ratioP1;P2;durP2;ratioP2
6985;SDS011;3533;51.246;6.850;2023-10-31T00:02:18;2.23;;;2.13;;
6985;SDS011;3533;51.246;6.850;2023-10-31T00:04:45;2.37;;;2.17;;
6985;SDS011;3533;51.246;6.850;2023-10-31T00:07:10;1.83;;;1.73;;
6985;SDS011;3533;51.246;6.850;2023-10-31T00:09:36;2.33;;;2.13;;
6985;SDS011;3533;51.246;6.850;2023-10-31T00:12:04;2.23;;;1.97;;
6985;SDS011;3533;51.246;6.850;2023-10-31T00:14:30;4.23;;;2.00;;
6985;SDS011;3533;51.246;6.850;2023-10-31T00:16:55;2.13;;;2.03;;
6985;SDS011;3533;51.246;6.850;2023-10-31T00:19:21;1.90;;;1.80;;
6985;SDS011;3533;51.246;6.850;2023-10-31T00:21:47;1.87;;;1.77;;
6985;SDS011;3533;51.246;6.850;2023-10-31T00:24:12;1.77;;;1.67;;
6985;SDS011;3533;51.246;6.850;2023-10-31T00:26:38;1.80;;;1.70;;
6985;SDS011;3533;51.246;6.850;2023-10-31T00:29:03;1.67;;;1.57;;
6985;SDS011;3533;51.246;6.850;2023-10-31T00:31:29;2.00;;;1.90;;
6985;SDS011;3533;51.246;6.850;2023-10-31T00:33:54;1.80;;;1.70;;
6985;SDS011;3533;51.246;6.850;2023-10-31T00:36:20;2.10;;;2.00;;
6985;SDS011;3533;51.246;6.850;2023-10-31T00:38:46;1.77;;;1.67;;
6985;SDS011;3533;51.246;6.850;2023-10-31T00:41:11;2.00;;;1.83;;
6985;SDS011;3533;51.246;6.850;2023-10-31T00:43:37;2.00;;;1.90;;
6985;SDS011;3533;51.246;6.850;2023-10-31T00:46:03;1.90;;;1.70;;
6985;SDS011;3533;51.246;6.850;2023-10-31T00:48:29;1.67;;;1.57;;
6985;SDS011;3533;51.246;6.850;2023-10-31T00:51:01;1.70;;;1.53;;
6985;SDS011;3533;51.246;6.850;2023-10-31T00:53:29;2.10;;;2.00;;
6985;SDS011;3533;51.246;6.850;2023-10-31T00:55:56;1.70;;;1.60;;
6985;SDS011;3533;51.246;6.850;2023-10-31T00:58:21;1.80;;;1.70;;
6985;SDS011;3533;51.246;6.850;2023-10-31T01:00:47;1.90;;;1.80;;
6985;SDS011;3533;51.246;6.850;2023-10-31T01:03:13;1.60;;;1.50;;
6985;SDS011;3533;51.246;6.850;2023-10-31T01:05:38;1.70;;;1.60;;
6985;SDS011;3533;51.246;6.850;2023-10-31T01:08:04;1.83;;;1.73;;
6985;SDS011;3533;51.246;6.850;2023-10-31T01:10:30;1.57;;;1.47;;
6985;SDS011;3533;51.246;6.850;2023-10-31T01:12:55;1.77;;;1.67;;
6985;SDS011;3533;51.246;6.850;2023-10-31T01:15:21;1.70;;;1.60;;
6985;SDS011;3533;51.246;6.850;2023-10-31T01:17:47;2.23;;;2.07;;
6985;SDS011;3533;51.246;6.850;2023-10-31T01:20:12;1.70;;;1.60;;
6985;SDS011;3533;51.246;6.850;2023-10-31T01:22:38;1.60;;;1.50;;
6985;SDS011;3533;51.246;6.850;2023-10-31T01:25:04;1.60;;;1.50;;
6985;SDS011;3533;51.246;6.850;2023-10-31T01:27:29;1.80;;;1.70;;
6985;SDS011;3533;51.246;6.850;2023-10-31T01:29:55;1.80;;;1.70;;
6985;SDS011;3533;51.246;6.850;2023-10-31T01:32:21;1.97;;;1.87;;
6985;SDS011;3533;51.246;6.850;2023-10-31T01:34:46;1.80;;;1.60;;
6985;SDS011;3533;51.246;6.850;2023-10-31T01:37:12;1.90;;;1.70;;
6985;SDS011;3533;51.246;6.850;2023-10-31T01:39:39;2.27;;;1.60;;
6985;SDS011;3533;51.246;6.850;2023-10-31T01:42:05;1.53;;;1.30;;
6985;SDS011;3533;51.246;6.850;2023-10-31T01:44:31;1.77;;;1.60;;
6985;SDS011;3533;51.246;6.850;2023-10-31T01:46:57;1.70;;;1.50;;
6985;SDS011;3533;51.246;6.850;2023-10-31T01:49:22;1.70;;;1.50;;
6985;SDS011;3533;51.246;6.850;2023-10-31T01:51:48;1.60;;;1.40;;
6985;SDS011;3533;51.246;6.850;2023-10-31T01:54:14;1.50;;;1.40;;
6985;SDS011;3533;51.246;6.850;2023-10-31T01:56:40;2.07;;;1.50;;
6985;SDS011;3533;51.246;6.850;2023-10-31T01:59:07;1.63;;;1.53;;
6985;SDS011;3533;51.246;6.850;2023-10-31T02:01:35;3.23;;;1.50;;
6985;SDS011;3533;51.246;6.850;2023-10-31T02:04:03;1.60;;;1.50;;
6985;SDS011;3533;51.246;6.850;2023-10-31T02:06:30;1.70;;;1.60;;
6985;SDS011;3533;51.246;6.850;2023-10-31T02:08:56;1.77;;;1.60;;
6985;SDS011;3533;51.246;6.850;2023-10-31T02:11:22;1.50;;;1.40;;
6985;SDS011;3533;51.246;6.850;2023-10-31T02:13:47;1.77;;;1.63;;
6985;SDS011;3533;51.246;6.850;2023-10-31T02:16:13;1.63;;;1.53;;
6985;SDS011;3533;51.246;6.850;2023-10-31T02:18:38;1.50;;;1.40;;
6985;SDS011;3533;51.246;6.850;2023-10-31T02:21:04;1.60;;;1.50;;
6985;SDS011;3533;51.246;6.850;2023-10-31T02:23:30;1.53;;;1.40;;
6985;SDS011;3533;51.246;6.850;2023-10-31T02:25:55;1.40;;;1.30;;
6985;SDS011;3533;51.246;6.850;2023-10-31T02:28:22;1.60;;;1.50;;
6985;SDS011;3533;51.246;6.850;2023-10-31T02:30:52;2.27;;;1.47;;
6985;SDS011;3533;51.246;6.850;2023-10-31T02:33:18;1.50;;;1.40;;
6985;SDS011;3533;51.246;6.850;2023-10-31T02:35:43;1.37;;;1.27;;
6985;SDS011;3533;51.246;6.850;2023-10-31T02:38:09;1.40;;;1.30;;
6985;SDS011;3533;51.246;6.850;2023-10-31T02:40:34;1.83;;;1.73;;
6985;SDS011;3533;51.246;6.850;2023-10-31T02:43:00;2.33;;;1.40;;
6985;SDS011;3533;51.246;6.850;2023-10-31T02:45:26;1.60;;;1.50;;
6985;SDS011;3533;51.246;6.850;2023-10-31T02:47:52;1.50;;;1.40;;
6985;SDS011;3533;51.246;6.850;2023-10-31T02:50:17;1.40;;;1.27;;
6985;SDS011;3533;51.246;6.850;2023-10-31T02:52:43;1.63;;;1.53;;
6985;SDS011;3533;51.246;6.850;2023-10-31T02:55:08;1.53;;;1.30;;
6985;SDS011;3533;51.246;6.850;2023-10-31T02:57:34;3.40;;;1.90;;
6985;SDS011;3533;51.246;6.850;2023-10-31T02:59:59;1.30;;;1.20;;
6985;SDS011;3533;51.246;6.850;2023-10-31T03:02:25;2.43;;;1.43;;
6985;SDS011;3533;51.246;6.850;2023-10-31T03:04:51;1.80;;;1.70;;
6985;SDS011;3533;51.246;6.850;2023-10-31T03:07:16;1.60;;;1.50;;
6985;SDS011;3533;51.246;6.850;2023-10-31T03:09:42;1.90;;;1.70;;
6985;SDS011;3533;51.246;6.850;2023-10-31T03:12:07;1.60;;;1.50;;
6985;SDS011;3533;51.246;6.850;2023-10-31T03:14:33;1.50;;;1.40;;
6985;SDS011;3533;51.246;6.850;2023-10-31T03:16:58;1.50;;;1.40;;
6985;SDS011;3533;51.246;6.850;2023-10-31T03:19:24;1.80;;;1.43;;
6985;SDS011;3533;51.246;6.850;2023-10-31T03:21:49;1.60;;;1.50;;
6985;SDS011;3533;51.246;6.850;2023-10-31T03:24:15;1.70;;;1.30;;
6985;SDS011;3533;51.246;6.850;2023-10-31T03:26:40;1.80;;;1.57;;
6985;SDS011;3533;51.246;6.850;2023-10-31T03:29:06;1.47;;;1.37;;
6985;SDS011;3533;51.246;6.850;2023-10-31T03:31:31;1.40;;;1.30;;
6985;SDS011;3533;51.246;6.850;2023-10-31T03:33:57;1.40;;;1.30;;
6985;SDS011;3533;51.246;6.850;2023-10-31T03:36:22;1.77;;;1.30;;
6985;SDS011;3533;51.246;6.850;2023-10-31T03:38:48;1.50;;;1.40;;
6985;SDS011;3533;51.246;6.850;2023-10-31T03:41:13;2.37;;;1.40;;
6985;SDS011;3533;51.246;6.850;2023-10-31T03:43:39;1.60;;;1.50;;
6985;SDS011;3533;51.246;6.850;2023-10-31T03:46:04;1.60;;;1.50;;
6985;SDS011;3533;51.246;6.850;2023-10-31T03:48:30;1.50;;;1.40;;
6985;SDS011;3533;51.246;6.850;2023-10-31T03:50:56;1.70;;;1.60;;
6985;SDS011;3533;51.246;6.850;2023-10-31T03:53:21;1.90;;;1.40;;
6985;SDS011;3533;51.246;6.850;2023-10-31T03:55:47;1.40;;;1.30;;
6985;SDS011;3533;51.246;6.850;2023-10-31T03:58:12;1.60;;;1.50;;
6985;SDS011;3533;51.246;6.850;2023-10-31T04:00:41;1.33;;;1.23;;
6985;SDS011;3533;51.246;6.850;2023-10-31T04:03:07;1.40;;;1.30;;
6985;SDS011;3533;51.246;6.850;2023-10-31T04:05:33;2.73;;;1.30;;
6985;SDS011;3533;51.246;6.850;2023-10-31T04:07:58;1.43;;;1.33;;
6985;SDS011;3533;51.246;6.850;2023-10-31T04:10:24;1.40;;;1.30;;
6985;SDS011;3533;51.246;6.850;2023-10-31T04:12:50;1.63;;;1.40;;
6985;SDS011;3533;51.246;6.850;2023-10-31T04:15:15;1.30;;;1.20;;
6985;SDS011;3533;51.246;6.850;2023-10-31T04:17:41;1.37;;;1.27;;
6985;SDS011;3533;51.246;6.850;2023-10-31T04:20:07;2.20;;;1.30;;
6985;SDS011;3533;51.246;6.850;2023-10-31T04:22:32;1.60;;;1.30;;
6985;SDS011;3533;51.246;6.850;2023-10-31T04:24:58;1.30;;;1.20;;
6985;SDS011;3533;51.246;6.850;2023-10-31T04:27:23;1.50;;;1.40;;
6985;SDS011;3533;51.246;6.850;2023-10-31T04:29:49;1.87;;;1.77;;
6985;SDS011;3533;51.246;6.850;2023-10-31T04:32:14;1.53;;;1.43;;
6985;SDS011;3533;51.246;6.850;2023-10-31T04:34:40;1.20;;;1.10;;
6985;SDS011;3533;51.246;6.850;2023-10-31T04:37:06;1.27;;;1.17;;
6985;SDS011;3533;51.246;6.850;2023-10-31T04:39:31;1.60;;;1.30;;
6985;SDS011;3533;51.246;6.850;2023-10-31T04:41:57;1.57;;;1.20;;
6985;SDS011;3533;51.246;6.850;2023-10-31T04:44:22;1.97;;;1.30;;
6985;SDS011;3533;51.246;6.850;2023-10-31T04:46:48;1.40;;;1.30;;
6985;SDS011;3533;51.246;6.850;2023-10-31T04:49:14;2.20;;;1.63;;
6985;SDS011;3533;51.246;6.850;2023-10-31T04:51:40;1.40;;;1.30;;
6985;SDS011;3533;51.246;6.850;2023-10-31T04:54:06;1.27;;;1.17;;
6985;SDS011;3533;51.246;6.850;2023-10-31T04:56:31;3.30;;;1.20;;
6985;SDS011;3533;51.246;6.850;2023-10-31T04:58:57;1.23;;;1.13;;
6985;SDS011;3533;51.246;6.850;2023-10-31T05:01:23;1.40;;;1.30;;
6985;SDS011;3533;51.246;6.850;2023-10-31T05:03:49;1.40;;;1.30;;
6985;SDS011;3533;51.246;6.850;2023-10-31T05:06:18;1.20;;;1.10;;
6985;SDS011;3533;51.246;6.850;2023-10-31T05:08:45;1.60;;;1.10;;
6985;SDS011;3533;51.246;6.850;2023-10-31T05:11:11;2.53;;;1.23;;
6985;SDS011;3533;51.246;6.850;2023-10-31T05:13:38;1.20;;;1.10;;
6985;SDS011;3533;51.246;6.850;2023-10-31T05:16:04;1.10;;;1.00;;
6985;SDS011;3533;51.246;6.850;2023-10-31T05:18:29;1.30;;;1.20;;
6985;SDS011;3533;51.246;6.850;2023-10-31T05:20:55;1.10;;;1.00;;
6985;SDS011;3533;51.246;6.850;2023-10-31T05:23:20;1.30;;;1.20;;
6985;SDS011;3533;51.246;6.850;2023-10-31T05:25:46;1.23;;;1.10;;
6985;SDS011;3533;51.246;6.850;2023-10-31T05:28:11;1.40;;;1.30;;
6985;SDS011;3533;51.246;6.850;2023-10-31T05:30:37;1.20;;;1.10;;
6985;SDS011;3533;51.246;6.850;2023-10-31T05:33:02;1.53;;;1.20;;
6985;SDS011;3533;51.246;6.850;2023-10-31T05:35:28;5.60;;;1.63;;
6985;SDS011;3533;51.246;6.850;2023-10-31T05:37:54;1.30;;;1.20;;
6985;SDS011;3533;51.246;6.850;2023-10-31T05:40:20;1.60;;;1.50;;
6985;SDS011;3533;51.246;6.850;2023-10-31T05:42:49;1.13;;;1.03;;
6985;SDS011;3533;51.246;6.850;2023-10-31T05:45:15;1.30;;;1.20;;
6985;SDS011;3533;51.246;6.850;2023-10-31T05:47:40;1.77;;;1.20;;
6985;SDS011;3533;51.246;6.850;2023-10-31T05:50:06;1.47;;;1.30;;
6985;SDS011;3533;51.246;6.850;2023-10-31T05:52:32;2.27;;;1.30;;
6985;SDS011;3533;51.246;6.850;2023-10-31T05:54:58;1.47;;;1.37;;
6985;SDS011;3533;51.246;6.850;2023-10-31T05:57:23;1.27;;;1.17;;
6985;SDS011;3533;51.246;6.850;2023-10-31T05:59:49;1.40;;;1.30;;
6985;SDS011;3533;51.246;6.850;2023-10-31T06:02:15;2.47;;;1.23;;
6985;SDS011;3533;51.246;6.850;2023-10-31T06:04:40;1.50;;;1.40;;
6985;SDS011;3533;51.246;6.850;2023-10-31T06:07:06;1.23;;;1.13;;
6985;SDS011;3533;51.246;6.850;2023-10-31T06:09:32;2.77;;;1.60;;
6985;SDS011;3533;51.246;6.850;2023-10-31T06:12:01;1.73;;;1.60;;
6985;SDS011;3533;51.246;6.850;2023-10-31T06:14:26;1.83;;;1.60;;
6985;SDS011;3533;51.246;6.850;2023-10-31T06:16:52;1.70;;;1.60;;
6985;SDS011;3533;51.246;6.850;2023-10-31T06:19:18;2.60;;;2.07;;
6985;SDS011;3533;51.246;6.850;2023-10-31T06:21:43;2.40;;;1.53;;
6985;SDS011;3533;51.246;6.850;2023-10-31T06:24:09;2.43;;;2.20;;
6985;SDS011;3533;51.246;6.850;2023-10-31T06:26:35;2.50;;;2.30;;
6985;SDS011;3533;51.246;6.850;2023-10-31T06:29:00;2.43;;;2.23;;
6985;SDS011;3533;51.246;6.850;2023-10-31T06:31:26;2.83;;;2.63;;
6985;SDS011;3533;51.246;6.850;2023-10-31T06:33:51;2.90;;;2.10;;
6985;SDS011;3533;51.246;6.850;2023-10-31T06:36:17;2.93;;;2.23;;
6985;SDS011;3533;51.246;6.850;2023-10-31T06:38:43;2.57;;;2.37;;
6985;SDS011;3533;51.246;6.850;2023-10-31T06:41:08;3.20;;;2.93;;
6985;SDS011;3533;51.246;6.850;2023-10-31T06:43:34;4.17;;;2.50;;
6985;SDS011;3533;51.246;6.850;2023-10-31T06:45:59;2.47;;;2.27;;
6985;SDS011;3533;51.246;6.850;2023-10-31T06:48:27;2.47;;;2.27;;
6985;SDS011;3533;51.246;6.850;2023-10-31T06:50:52;2.40;;;2.20;;
6985;SDS011;3533;51.246;6.850;2023-10-31T06:53:18;3.73;;;3.10;;
6985;SDS011;3533;51.246;6.850;2023-10-31T06:55:44;3.47;;;2.83;;
6985;SDS011;3533;51.246;6.850;2023-10-31T06:58:09;7.70;;;3.07;;
6985;SDS011;3533;51.246;6.850;2023-10-31T07:00:35;3.40;;;2.50;;
6985;SDS011;3533;51.246;6.850;2023-10-31T07:03:00;5.43;;;2.90;;
6985;SDS011;3533;51.246;6.850;2023-10-31T07:05:31;3.47;;;3.20;;
6985;SDS011;3533;51.246;6.850;2023-10-31T07:07:57;2.83;;;2.60;;
6985;SDS011;3533;51.246;6.850;2023-10-31T07:10:22;3.33;;;2.90;;
6985;SDS011;3533;51.246;6.850;2023-10-31T07:12:48;3.43;;;2.50;;
6985;SDS011;3533;51.246;6.850;2023-10-31T07:15:13;4.50;;;3.20;;
6985;SDS011;3533;51.246;6.850;2023-10-31T07:17:39;2.77;;;2.40;;
6985;SDS011;3533;51.246;6.850;2023-10-31T07:20:05;4.20;;;2.40;;
6985;SDS011;3533;51.246;6.850;2023-10-31T07:22:31;4.30;;;3.10;;
6985;SDS011;3533;51.246;6.850;2023-10-31T07:24:58;5.87;;;3.10;;
6985;SDS011;3533;51.246;6.850;2023-10-31T07:27:24;3.83;;;3.23;;
6985;SDS011;3533;51.246;6.850;2023-10-31T07:29:50;3.40;;;2.70;;
6985;SDS011;3533;51.246;6.850;2023-10-31T07:32:15;2.57;;;2.37;;
6985;SDS011;3533;51.246;6.850;2023-10-31T07:34:41;3.70;;;2.93;;
6985;SDS011;3533;51.246;6.850;2023-10-31T07:37:07;3.00;;;2.80;;
6985;SDS011;3533;51.246;6.850;2023-10-31T07:39:32;3.20;;;3.00;;
6985;SDS011;3533;51.246;6.850;2023-10-31T07:41:58;3.27;;;2.97;;
6985;SDS011;3533;51.246;6.850;2023-10-31T07:44:23;2.23;;;2.03;;
6985;SDS011;3533;51.246;6.850;2023-10-31T07:46:49;2.73;;;2.33;;
6985;SDS011;3533;51.246;6.850;2023-10-31T07:49:15;4.43;;;2.93;;
6985;SDS011;3533;51.246;6.850;2023-10-31T07:51:40;3.10;;;2.83;;
6985;SDS011;3533;51.246;6.850;2023-10-31T07:54:06;4.97;;;3.40;;
6985;SDS011;3533;51.246;6.850;2023-10-31T07:56:31;3.20;;;2.40;;
6985;SDS011;3533;51.246;6.850;2023-10-31T07:58:57;2.80;;;2.60;;
6985;SDS011;3533;51.246;6.850;2023-10-31T08:01:23;2.93;;;2.40;;
6985;SDS011;3533;51.246;6.850;2023-10-31T08:03:49;3.30;;;2.50;;
6985;SDS011;3533;51.246;6.850;2023-10-31T08:06:14;3.40;;;2.83;;
6985;SDS011;3533;51.246;6.850;2023-10-31T08:08:40;5.43;;;2.80;;
6985;SDS011;3533;51.246;6.850;2023-10-31T08:11:09;3.17;;;2.87;;
6985;SDS011;3533;51.246;6.850;2023-10-31T08:13:36;2.97;;;2.67;;
6985;SDS011;3533;51.246;6.850;2023-10-31T08:16:02;3.90;;;3.50;;
6985;SDS011;3533;51.246;6.850;2023-10-31T08:18:31;2.27;;;2.17;;
6985;SDS011;3533;51.246;6.850;2023-10-31T08:20:57;2.80;;;2.60;;
6985;SDS011;3533;51.246;6.850;2023-10-31T08:23:22;3.07;;;2.47;;
6985;SDS011;3533;51.246;6.850;2023-10-31T08:25:48;3.43;;;2.37;;
6985;SDS011;3533;51.246;6.850;2023-10-31T08:28:15;2.50;;;2.30;;
6985;SDS011;3533;51.246;6.850;2023-10-31T08:30:41;2.80;;;2.60;;
6985;SDS011;3533;51.246;6.850;2023-10-31T08:33:06;2.43;;;2.23;;
6985;SDS011;3533;51.246;6.850;2023-10-31T08:35:32;2.37;;;2.27;;
6985;SDS011;3533;51.246;6.850;2023-10-31T08:37:58;2.83;;;2.60;;
6985;SDS011;3533;51.246;6.850;2023-10-31T08:40:23;2.73;;;2.50;;
6985;SDS011;3533;51.246;6.850;2023-10-31T08:42:49;4.10;;;3.33;;
6985;SDS011;3533;51.246;6.850;2023-10-31T08:45:14;2.07;;;1.87;;
6985;SDS011;3533;51.246;6.850;2023-10-31T08:47:40;2.67;;;2.40;;
6985;SDS011;3533;51.246;6.850;2023-10-31T08:50:06;2.33;;;2.13;;
6985;SDS011;3533;51.246;6.850;2023-10-31T08:52:33;2.63;;;2.43;;
6985;SDS011;3533;51.246;6.850;2023-10-31T08:54:59;2.37;;;2.17;;
6985;SDS011;3533;51.246;6.850;2023-10-31T08:57:25;2.60;;;2.40;;
6985;SDS011;3533;51.246;6.850;2023-10-31T08:59:50;2.40;;;2.20;;
6985;SDS011;3533;51.246;6.850;2023-10-31T09:02:16;2.40;;;2.20;;
6985;SDS011;3533;51.246;6.850;2023-10-31T09:04:41;3.00;;;2.70;;
6985;SDS011;3533;51.246;6.850;2023-10-31T09:07:07;2.43;;;2.27;;
6985;SDS011;3533;51.246;6.850;2023-10-31T09:09:32;2.87;;;2.67;;
6985;SDS011;3533;51.246;6.850;2023-10-31T09:11:58;2.60;;;2.40;;
6985;SDS011;3533;51.246;6.850;2023-10-31T09:14:23;2.73;;;2.53;;
6985;SDS011;3533;51.246;6.850;2023-10-31T09:16:49;2.77;;;2.10;;
6985;SDS011;3533;51.246;6.850;2023-10-31T09:19:15;2.70;;;2.50;;
6985;SDS011;3533;51.246;6.850;2023-10-31T09:21:40;4.60;;;2.30;;
6985;SDS011;3533;51.246;6.850;2023-10-31T09:24:06;2.00;;;1.90;;
6985;SDS011;3533;51.246;6.850;2023-10-31T09:26:33;2.80;;;2.13;;
6985;SDS011;3533;51.246;6.850;2023-10-31T09:28:58;2.23;;;2.10;;
6985;SDS011;3533;51.246;6.850;2023-10-31T09:31:24;2.73;;;2.50;;
6985;SDS011;3533;51.246;6.850;2023-10-31T09:33:49;2.57;;;2.37;;
6985;SDS011;3533;51.246;6.850;2023-10-31T09:36:15;2.33;;;2.13;;
6985;SDS011;3533;51.246;6.850;2023-10-31T09:38:41;2.43;;;2.10;;
6985;SDS011;3533;51.246;6.850;2023-10-31T09:41:06;2.50;;;2.30;;
6985;SDS011;3533;51.246;6.850;2023-10-31T09:43:32;2.57;;;2.03;;
6985;SDS011;3533;51.246;6.850;2023-10-31T09:45:58;2.13;;;2.03;;
6985;SDS011;3533;51.246;6.850;2023-10-31T09:48:25;2.03;;;1.93;;
6985;SDS011;3533;51.246;6.850;2023-10-31T09:50:51;2.40;;;2.20;;
6985;SDS011;3533;51.246;6.850;2023-10-31T09:53:18;2.40;;;2.20;;
6985;SDS011;3533;51.246;6.850;2023-10-31T09:55:45;2.63;;;2.43;;
6985;SDS011;3533;51.246;6.850;2023-10-31T09:58:12;2.00;;;1.90;;
6985;SDS011;3533;51.246;6.850;2023-10-31T10:00:37;2.77;;;2.57;;
6985;SDS011;3533;51.246;6.850;2023-10-31T10:03:05;2.53;;;2.33;;
6985;SDS011;3533;51.246;6.850;2023-10-31T10:05:34;2.40;;;2.30;;
6985;SDS011;3533;51.246;6.850;2023-10-31T10:08:01;2.87;;;2.67;;
6985;SDS011;3533;51.246;6.850;2023-10-31T10:10:28;2.03;;;1.93;;
6985;SDS011;3533;51.246;6.850;2023-10-31T10:12:55;3.33;;;2.50;;
6985;SDS011;3533;51.246;6.850;2023-10-31T10:15:20;2.00;;;1.90;;
6985;SDS011;3533;51.246;6.850;2023-10-31T10:17:50;2.43;;;2.30;;
6985;SDS011;3533;51.246;6.850;2023-10-31T10:20:16;2.23;;;2.10;;
6985;SDS011;3533;51.246;6.850;2023-10-31T10:22:43;2.40;;;2.20;;
6985;SDS011;3533;51.246;6.850;2023-10-31T10:25:09;2.30;;;2.20;;
6985;SDS011;3533;51.246;6.850;2023-10-31T10:27:39;1.80;;;1.70;;
6985;SDS011;3533;51.246;6.850;2023-10-31T10:30:06;2.53;;;2.40;;
6985;SDS011;3533;51.246;6.850;2023-10-31T10:32:33;2.43;;;2.23;;
6985;SDS011;3533;51.246;6.850;2023-10-31T10:34:58;2.67;;;2.03;;
6985;SDS011;3533;51.246;6.850;2023-10-31T10:37:25;2.43;;;2.23;;
6985;SDS011;3533;51.246;6.850;2023-10-31T10:39:52;1.90;;;1.80;;
6985;SDS011;3533;51.246;6.850;2023-10-31T10:42:27;1.93;;;1.83;;
6985;SDS011;3533;51.246;6.850;2023-10-31T10:45:02;3.13;;;1.90;;
6985;SDS011;3533;51.246;6.850;2023-10-31T10:47:30;2.20;;;2.10;;
6985;SDS011;3533;51.246;6.850;2023-10-31T10:49:58;1.90;;;1.73;;
6985;SDS011;3533;51.246;6.850;2023-10-31T10:52:30;1.93;;;1.77;;
6985;SDS011;3533;51.246;6.850;2023-10-31T10:55:13;2.10;;;2.00;;
6985;SDS011;3533;51.246;6.850;2023-10-31T10:57:52;2.63;;;2.20;;
6985;SDS011;3533;51.246;6.850;2023-10-31T11:00:26;1.80;;;1.70;;
6985;SDS011;3533;51.246;6.850;2023-10-31T11:02:55;2.60;;;2.00;;
6985;SDS011;3533;51.246;6.850;2023-10-31T11:05:21;2.67;;;2.47;;
6985;SDS011;3533;51.246;6.850;2023-10-31T11:07:48;5.20;;;2.10;;
6985;SDS011;3533;51.246;6.850;2023-10-31T11:10:16;1.70;;;1.60;;
6985;SDS011;3533;51.246;6.850;2023-10-31T11:12:42;1.80;;;1.70;;
6985;SDS011;3533;51.246;6.850;2023-10-31T11:15:08;2.00;;;1.90;;
6985;SDS011;3533;51.246;6.850;2023-10-31T11:17:39;1.97;;;1.87;;
6985;SDS011;3533;51.246;6.850;2023-10-31T11:20:08;1.73;;;1.63;;
6985;SDS011;3533;51.246;6.850;2023-10-31T11:22:39;1.70;;;1.60;;
6985;SDS011;3533;51.246;6.850;2023-10-31T11:25:15;2.00;;;1.90;;
6985;SDS011;3533;51.246;6.850;2023-10-31T11:27:49;2.33;;;1.83;;
6985;SDS011;3533;51.246;6.850;2023-10-31T11:32:53;1.87;;;1.77;;
6985;SDS011;3533;51.246;6.850;2023-10-31T11:35:19;2.13;;;2.00;;
6985;SDS011;3533;51.246;6.850;2023-10-31T11:38:00;2.20;;;2.00;;
6985;SDS011;3533;51.246;6.850;2023-10-31T11:40:58;2.23;;;2.13;;
6985;SDS011;3533;51.246;6.850;2023-10-31T11:43:34;2.50;;;2.37;;
6985;SDS011;3533;51.246;6.850;2023-10-31T11:46:01;3.03;;;2.80;;
6985;SDS011;3533;51.246;6.850;2023-10-31T11:51:13;4.40;;;3.10;;
6985;SDS011;3533;51.246;6.850;2023-10-31T11:53:39;2.87;;;2.67;;
6985;SDS011;3533;51.246;6.850;2023-10-31T11:56:05;3.60;;;3.30;;
6985;SDS011;3533;51.246;6.850;2023-10-31T11:58:31;3.67;;;3.37;;
6985;SDS011;3533;51.246;6.850;2023-10-31T12:01:03;4.37;;;3.97;;
6985;SDS011;3533;51.246;6.850;2023-10-31T12:03:42;5.67;;;4.00;;
6985;SDS011;3533;51.246;6.850;2023-10-31T12:06:12;3.83;;;3.63;;
6985;SDS011;3533;51.246;6.850;2023-10-31T12:08:40;4.23;;;3.90;;
6985;SDS011;3533;51.246;6.850;2023-10-31T12:11:08;4.37;;;4.07;;
6985;SDS011;3533;51.246;6.850;2023-10-31T12:13:42;5.03;;;4.60;;
6985;SDS011;3533;51.246;6.850;2023-10-31T12:16:17;3.73;;;3.47;;
6985;SDS011;3533;51.246;6.850;2023-10-31T12:18:43;4.70;;;4.30;;
6985;SDS011;3533;51.246;6.850;2023-10-31T12:21:09;4.13;;;3.83;;
6985;SDS011;3533;51.246;6.850;2023-10-31T12:23:37;5.27;;;4.20;;
6985;SDS011;3533;51.246;6.850;2023-10-31T12:26:03;4.20;;;3.80;;
6985;SDS011;3533;51.246;6.850;2023-10-31T12:28:28;4.00;;;3.70;;
6985;SDS011;3533;51.246;6.850;2023-10-31T12:30:54;4.20;;;3.90;;
6985;SDS011;3533;51.246;6.850;2023-10-31T12:33:20;4.00;;;3.80;;
6985;SDS011;3533;51.246;6.850;2023-10-31T12:35:49;4.57;;;4.07;;
6985;SDS011;3533;51.246;6.850;2023-10-31T12:38:17;4.67;;;4.27;;
6985;SDS011;3533;51.246;6.850;2023-10-31T12:40:43;4.57;;;4.23;;
6985;SDS011;3533;51.246;6.850;2023-10-31T12:43:09;3.97;;;3.57;;
6985;SDS011;3533;51.246;6.850;2023-10-31T12:45:35;4.23;;;3.83;;
6985;SDS011;3533;51.246;6.850;2023-10-31T12:48:05;5.20;;;4.70;;
6985;SDS011;3533;51.246;6.850;2023-10-31T12:50:32;4.97;;;4.43;;
6985;SDS011;3533;51.246;6.850;2023-10-31T12:52:59;5.10;;;4.63;;
6985;SDS011;3533;51.246;6.850;2023-10-31T12:55:25;5.20;;;4.70;;
6985;SDS011;3533;51.246;6.850;2023-10-31T12:57:55;4.40;;;4.10;;
6985;SDS011;3533;51.246;6.850;2023-10-31T13:00:22;5.33;;;4.23;;
6985;SDS011;3533;51.246;6.850;2023-10-31T13:02:59;4.60;;;4.20;;
6985;SDS011;3533;51.246;6.850;2023-10-31T13:05:36;4.87;;;4.40;;
6985;SDS011;3533;51.246;6.850;2023-10-31T13:08:08;4.80;;;4.40;;
6985;SDS011;3533;51.246;6.850;2023-10-31T13:10:39;4.87;;;4.30;;
6985;SDS011;3533;51.246;6.850;2023-10-31T13:13:04;4.47;;;4.10;;
6985;SDS011;3533;51.246;6.850;2023-10-31T13:15:30;4.57;;;4.27;;
6985;SDS011;3533;51.246;6.850;2023-10-31T13:17:56;6.47;;;5.23;;
6985;SDS011;3533;51.246;6.850;2023-10-31T13:20:22;4.60;;;4.30;;
6985;SDS011;3533;51.246;6.850;2023-10-31T13:22:48;5.13;;;4.63;;
6985;SDS011;3533;51.246;6.850;2023-10-31T13:25:14;6.43;;;5.17;;
6985;SDS011;3533;51.246;6.850;2023-10-31T13:27:41;4.77;;;4.37;;
6985;SDS011;3533;51.246;6.850;2023-10-31T13:30:08;4.70;;;4.30;;
6985;SDS011;3533;51.246;6.850;2023-10-31T13:32:38;6.53;;;4.57;;
6985;SDS011;3533;51.246;6.850;2023-10-31T13:35:05;5.57;;;4.67;;
6985;SDS011;3533;51.246;6.850;2023-10-31T13:37:31;5.70;;;4.40;;
6985;SDS011;3533;51.246;6.850;2023-10-31T13:39:57;5.10;;;4.60;;
6985;SDS011;3533;51.246;6.850;2023-10-31T13:42:23;4.53;;;4.00;;
6985;SDS011;3533;51.246;6.850;2023-10-31T13:44:50;5.07;;;4.67;;
6985;SDS011;3533;51.246;6.850;2023-10-31T13:47:16;4.93;;;4.63;;
6985;SDS011;3533;51.246;6.850;2023-10-31T13:49:42;4.77;;;4.37;;
6985;SDS011;3533;51.246;6.850;2023-10-31T13:52:07;5.13;;;4.60;;
6985;SDS011;3533;51.246;6.850;2023-10-31T13:54:33;6.37;;;4.90;;
6985;SDS011;3533;51.246;6.850;2023-10-31T13:56:58;5.60;;;4.73;;
6985;SDS011;3533;51.246;6.850;2023-10-31T13:59:24;5.20;;;4.80;;
6985;SDS011;3533;51.246;6.850;2023-10-31T14:01:50;4.57;;;4.20;;
6985;SDS011;3533;51.246;6.850;2023-10-31T14:04:18;4.40;;;4.00;;
6985;SDS011;3533;51.246;6.850;2023-10-31T14:06:44;4.60;;;4.23;;
6985;SDS011;3533;51.246;6.850;2023-10-31T14:09:10;5.00;;;4.60;;
6985;SDS011;3533;51.246;6.850;2023-10-31T14:11:37;5.93;;;4.57;;
6985;SDS011;3533;51.246;6.850;2023-10-31T14:14:03;5.00;;;4.60;;
6985;SDS011;3533;51.246;6.850;2023-10-31T14:16:35;4.60;;;4.20;;
6985;SDS011;3533;51.246;6.850;2023-10-31T14:19:02;4.93;;;4.53;;
6985;SDS011;3533;51.246;6.850;2023-10-31T14:21:28;7.03;;;4.90;;
6985;SDS011;3533;51.246;6.850;2023-10-31T14:23:54;5.43;;;4.93;;
6985;SDS011;3533;51.246;6.850;2023-10-31T14:26:20;4.47;;;4.07;;
6985;SDS011;3533;51.246;6.850;2023-10-31T14:28:46;4.43;;;4.13;;
6985;SDS011;3533;51.246;6.850;2023-10-31T14:31:12;4.53;;;4.10;;
6985;SDS011;3533;51.246;6.850;2023-10-31T14:33:37;4.80;;;4.50;;
6985;SDS011;3533;51.246;6.850;2023-10-31T14:36:03;5.00;;;4.60;;
6985;SDS011;3533;51.246;6.850;2023-10-31T14:38:29;4.43;;;4.03;;
6985;SDS011;3533;51.246;6.850;2023-10-31T14:40:54;4.30;;;4.00;;
6985;SDS011;3533;51.246;6.850;2023-10-31T14:43:20;4.90;;;4.50;;
6985;SDS011;3533;51.246;6.850;2023-10-31T14:45:45;4.57;;;4.20;;
6985;SDS011;3533;51.246;6.850;2023-10-31T14:48:11;4.47;;;4.10;;
6985;SDS011;3533;51.246;6.850;2023-10-31T14:50:36;4.23;;;3.93;;
6985;SDS011;3533;51.246;6.850;2023-10-31T14:53:03;4.60;;;4.20;;
6985;SDS011;3533;51.246;6.850;2023-10-31T14:55:30;4.13;;;3.80;;
6985;SDS011;3533;51.246;6.850;2023-10-31T14:57:55;3.70;;;3.40;;
6985;SDS011;3533;51.246;6.850;2023-10-31T15:00:21;3.70;;;3.50;;
6985;SDS011;3533;51.246;6.850;2023-10-31T15:02:46;5.90;;;5.37;;
6985;SDS011;3533;51.246;6.850;2023-10-31T15:05:12;4.13;;;3.80;;
6985;SDS011;3533;51.246;6.850;2023-10-31T15:07:38;4.63;;;4.27;;
6985;SDS011;3533;51.246;6.850;2023-10-31T15:10:05;4.10;;;3.80;;
6985;SDS011;3533;51.246;6.850;2023-10-31T15:12:31;5.63;;;4.67;;
6985;SDS011;3533;51.246;6.850;2023-10-31T15:14:57;4.77;;;4.30;;
6985;SDS011;3533;51.246;6.850;2023-10-31T15:17:23;4.17;;;3.97;;